Time;durP1;ratioP1;P1;durP2;ratioP2;P2;SDS_P1;SDS_P2;PMS_P1;PMS_P2;Temp;Humidity;BMP_temperature;BMP_pressure;BME280_temperature;BME280_humidity;BME280_pressure;Samples;Min_cycle;Max_cycle;Signal;HPM_P1;HPM_P2
2021/03/13 00:01:12;;;;;;;1.25;1.13;;;;;;;0.68;73.70;93353.13;5114643;28;20480;-45
2021/03/13 00:03:38;;;;;;;4.93;2.15;;;;;;;0.43;74.59;93354.75;5114497;28;20038;-43
2021/03/13 00:06:04;;;;;;;1.10;1.10;;;;;;;0.20;75.35;93339.56;5114357;28;20019;-43
2021/03/13 00:08:30;;;;;;;1.95;1.77;;;;;;;0.21;75.60;93348.44;5114381;28;20027;-43
2021/03/13 00:10:55;;;;;;;1.73;1.63;;;;;;;0.19;76.86;93346.22;5114307;28;20029;-42
2021/03/13 00:13:21;;;;;;;1.67;1.58;;;;;;;0.18;77.22;93339.28;5114177;28;20030;-45
2021/03/13 00:15:47;;;;;;;1.55;1.15;;;;;;;0.29;77.69;93333.19;5114087;28;20036;-46
2021/03/13 00:18:13;;;;;;;2.42;2.13;;;;;;;0.37;77.98;93339.66;5114163;28;20062;-45
2021/03/13 00:20:40;;;;;;;2.78;2.47;;;;;;;0.37;77.98;93340.38;5114198;28;20492;-44
2021/03/13 00:23:06;;;;;;;3.17;2.40;;;;;;;0.50;76.92;93339.94;5114073;28;20411;-41
2021/03/13 00:25:33;;;;;;;3.20;2.13;;;;;;;0.42;77.12;93331.53;5113958;28;20042;-39
2021/03/13 00:27:59;;;;;;;1.75;1.65;;;;;;;0.56;77.24;93340.75;5113904;28;20037;-40
2021/03/13 00:30:36;;;;;;;4.00;3.60;;;;;;;0.66;76.00;93334.63;5113813;28;20031;-40
2021/03/13 00:33:05;;;;;;;4.20;3.88;;;;;;;0.56;75.16;93308.88;5113673;28;20027;-40
2021/03/13 00:35:32;;;;;;;3.80;3.50;;;;;;;0.64;75.90;93336.31;5114108;28;20036;-40
2021/03/13 00:37:58;;;;;;;3.35;3.08;;;;;;;0.72;74.98;93321.78;5113272;28;20491;-42
2021/03/13 00:40:26;;;;;;;3.30;3.05;;;;;;;0.71;75.41;93308.69;5113255;28;20023;-43
2021/03/13 00:42:52;;;;;;;2.38;2.25;;;;;;;0.80;74.64;93313.94;5113150;28;20034;-41
2021/03/13 00:45:22;;;;;;;4.57;4.00;;;;;;;0.67;74.90;93302.75;5112778;28;20044;-42
2021/03/13 00:47:48;;;;;;;0.77;0.77;;;;;;;0.83;74.48;93298.59;5113183;28;20030;-43
2021/03/13 00:50:15;;;;;;;3.70;1.60;;;;;;;0.64;74.44;93282.00;5112786;28;20019;-40
2021/03/13 00:52:41;;;;;;;1.67;1.58;;;;;;;0.80;74.46;93297.63;5113569;28;20023;-43
2021/03/13 00:55:08;;;;;;;4.32;2.85;;;;;;;0.69;75.18;93292.16;5113395;28;20027;-44
2021/03/13 00:57:33;;;;;;;2.58;2.38;;;;;;;0.73;74.33;93284.50;5113293;28;20033;-42
2021/03/13 00:59:59;;;;;;;2.88;2.67;;;;;;;0.81;74.11;93285.50;5113333;28;20474;-44
2021/03/13 01:02:24;;;;;;;7.88;2.92;;;;;;;0.68;74.97;93271.63;5113239;28;20025;-42
2021/03/13 01:04:50;;;;;;;9.07;2.85;;;;;;;0.77;75.24;93280.31;5113276;28;20022;-43
2021/03/13 01:07:15;;;;;;;2.25;2.15;;;;;;;0.60;75.16;93255.06;5113111;28;20024;-42
2021/03/13 01:09:41;;;;;;;1.83;1.70;;;;;;;0.90;75.41;93282.56;5113090;28;20042;-43
2021/03/13 01:12:07;;;;;;;4.25;3.90;;;;;;;1.07;74.47;93280.63;5113201;28;20031;-43
2021/03/13 01:14:33;;;;;;;3.60;1.55;;;;;;;1.00;74.50;93278.38;5113040;28;20043;-43
2021/03/13 01:16:58;;;;;;;2.70;2.50;;;;;;;0.95;74.22;93281.84;5113322;28;20542;-41
2021/03/13 01:19:23;;;;;;;7.57;3.85;;;;;;;0.77;74.76;93280.31;5112787;28;20480;-42
2021/03/13 01:21:49;;;;;;;2.88;2.13;;;;;;;0.74;75.34;93283.25;5112803;28;20031;-40
2021/03/13 01:24:14;;;;;;;2.03;1.88;;;;;;;0.64;76.10;93271.88;5112805;28;20024;-41
2021/03/13 01:26:40;;;;;;;1.95;1.85;;;;;;;0.51;76.19;93271.59;5112752;28;20530;-42
2021/03/13 01:29:06;;;;;;;1.02;1.02;;;;;;;0.58;76.83;93271.13;5112788;28;20020;-40
2021/03/13 01:31:31;;;;;;;0.90;0.90;;;;;;;0.75;76.28;93266.47;5112975;28;20156;-43
2021/03/13 01:33:56;;;;;;;0.95;0.95;;;;;;;0.80;76.68;93265.00;5112678;28;20404;-42
2021/03/13 01:36:22;;;;;;;1.40;1.33;;;;;;;0.87;76.75;93261.81;5112718;28;20110;-42
2021/03/13 01:38:47;;;;;;;2.55;1.30;;;;;;;1.00;75.87;93259.34;5112424;28;20032;-41
2021/03/13 01:41:13;;;;;;;2.63;2.33;;;;;;;1.02;76.81;93259.59;5112573;28;20039;-43
2021/03/13 01:43:39;;;;;;;2.15;2.05;;;;;;;1.05;76.91;93258.63;5112412;28;20018;-42
2021/03/13 01:46:04;;;;;;;5.28;4.60;;;;;;;1.17;75.35;93262.13;5112332;28;20043;-41
2021/03/13 01:48:35;;;;;;;10.68;4.60;;;;;;;1.21;75.54;93262.63;5112557;28;20025;-45
2021/03/13 01:51:01;;;;;;;6.10;3.35;;;;;;;1.12;74.94;93258.16;5094075;28;20503;-41
2021/03/13 01:53:27;;;;;;;3.92;3.58;;;;;;;1.09;75.54;93250.97;5112338;28;20032;-41
2021/03/13 01:55:53;;;;;;;2.60;2.40;;;;;;;1.23;75.37;93255.44;5112146;28;20541;-42
2021/03/13 01:58:18;;;;;;;2.35;2.25;;;;;;;1.14;75.42;93263.09;5112065;28;20053;-43
2021/03/13 02:00:44;;;;;;;3.47;3.22;;;;;;;1.05;75.82;93260.59;5112232;28;20024;-41
2021/03/13 02:03:09;;;;;;;1.83;1.73;;;;;;;1.22;75.26;93258.66;5112013;28;20023;-43
2021/03/13 02:05:41;;;;;;;2.88;2.65;;;;;;;1.26;74.91;93265.31;5112334;28;20021;-41
2021/03/13 02:08:33;;;;;;;2.40;1.70;;;;;;;1.15;75.62;93259.16;5112016;28;20417;-42
2021/03/13 02:11:21;;;;;;;2.97;2.78;;;;;;;1.18;76.17;93253.47;5093879;28;20020;-44
2021/03/13 02:13:55;;;;;;;1.90;1.05;;;;;;;1.20;75.47;93255.69;5111701;28;20028;-46
2021/03/13 02:16:39;;;;;;;2.25;1.90;;;;;;;1.12;76.37;93244.56;5093171;28;20043;-47
2021/03/13 02:19:26;;;;;;;0.93;0.93;;;;;;;1.22;76.29;93251.22;5110878;28;20060;-45
2021/03/13 02:22:00;;;;;;;3.40;2.47;;;;;;;1.24;75.92;93248.75;5111684;28;20126;-42
2021/03/13 02:24:39;;;;;;;1.92;1.83;;;;;;;1.25;76.48;93250.25;5111755;28;20027;-46
2021/03/13 02:27:10;;;;;;;4.85;2.78;;;;;;;1.37;76.08;93253.72;5093671;28;20475;-45
2021/03/13 02:29:48;;;;;;;1.33;1.33;;;;;;;1.11;75.81;93253.94;5093690;28;20058;-44
2021/03/13 02:32:40;;;;;;;6.60;2.03;;;;;;;1.24;75.68;93259.63;5111570;28;20518;-44
2021/03/13 02:35:10;;;;;;;9.00;4.43;;;;;;;1.33;75.03;93267.56;5100017;28;20035;-44
2021/03/13 02:37:39;;;;;;;13.70;5.70;;;;;;;1.32;75.14;93257.91;5093578;28;20561;-45
2021/03/13 02:40:06;;;;;;;4.35;3.13;;;;;;;1.34;75.87;93266.31;5093270;28;20166;-44
2021/03/13 02:42:39;;;;;;;3.40;3.05;;;;;;;1.16;76.25;93268.78;5093364;28;20447;-42
2021/03/13 02:45:05;;;;;;;2.83;2.47;;;;;;;1.14;76.60;93269.28;5092957;28;20507;-41
2021/03/13 02:47:32;;;;;;;5.68;1.83;;;;;;;1.11;77.74;93275.69;5093034;28;20023;-42
2021/03/13 02:49:58;;;;;;;1.90;1.65;;;;;;;1.13;77.40;93264.31;5089531;28;20016;-42
2021/03/13 02:52:23;;;;;;;2.58;2.35;;;;;;;1.10;78.29;93259.88;5089822;28;20031;-42
2021/03/13 02:54:51;;;;;;;2.70;2.15;;;;;;;1.12;78.24;93244.56;5089394;28;20024;-42
2021/03/13 02:57:17;;;;;;;2.60;2.50;;;;;;;1.22;78.70;93270.28;5090800;28;20028;-45
2021/03/13 02:59:45;;;;;;;0.77;0.75;;;;;;;1.27;78.56;93266.81;5089747;28;20016;-43
2021/03/13 03:02:12;;;;;;;1.23;1.23;;;;;;;1.40;77.46;93253.47;5092773;28;20023;-41
2021/03/13 03:04:40;;;;;;;1.33;1.23;;;;;;;1.45;76.98;93252.72;5111054;28;20023;-41
2021/03/13 03:07:05;;;;;;;1.52;1.42;;;;;;;1.52;77.30;93248.75;5092913;28;20054;-41
2021/03/13 03:09:32;;;;;;;2.60;2.40;;;;;;;1.57;76.75;93248.03;5092866;28;20065;-43
2021/03/13 03:11:57;;;;;;;2.25;2.15;;;;;;;1.53;76.58;93239.38;5110945;28;20076;-43
2021/03/13 03:14:23;;;;;;;4.22;3.92;;;;;;;1.52;76.49;93235.16;5092809;28;20098;-43
2021/03/13 03:16:53;;;;;;;5.25;4.78;;;;;;;1.56;75.89;93234.94;5110801;28;20513;-45
2021/03/13 03:19:19;;;;;;;3.13;2.92;;;;;;;1.62;75.95;93224.78;5110805;28;20028;-41
2021/03/13 03:21:45;;;;;;;9.38;6.05;;;;;;;1.56;76.14;93238.38;5110815;28;20049;-40
2021/03/13 03:24:11;;;;;;;3.13;2.92;;;;;;;1.72;75.47;93234.91;5110878;28;20047;-42
2021/03/13 03:26:37;;;;;;;3.92;3.00;;;;;;;1.68;75.52;93234.41;5092172;28;20047;-45
2021/03/13 03:29:03;;;;;;;5.93;3.33;;;;;;;1.28;77.05;93232.94;5109682;28;20481;-45
2021/03/13 03:31:28;;;;;;;7.15;3.75;;;;;;;1.43;77.54;93230.72;5114290;28;20544;-43
2021/03/13 03:33:54;;;;;;;5.53;3.95;;;;;;;1.65;76.27;93219.06;5115129;28;20026;-44
2021/03/13 03:36:19;;;;;;;6.03;4.53;;;;;;;1.70;76.32;93223.03;5114889;28;20427;-41
2021/03/13 03:38:45;;;;;;;2.60;2.42;;;;;;;1.41;76.69;93222.31;5096554;28;20016;-43
2021/03/13 03:41:10;;;;;;;1.38;1.30;;;;;;;1.25;77.55;93225.03;5114810;28;20023;-42
2021/03/13 03:43:43;;;;;;;2.53;1.48;;;;;;;1.33;77.58;93215.13;5114845;28;20030;-43
2021/03/13 03:46:09;;;;;;;3.55;3.25;;;;;;;1.41;78.01;93224.28;5113743;28;20052;-41
2021/03/13 03:48:35;;;;;;;6.72;2.50;;;;;;;1.45;77.25;93230.97;5114625;28;20503;-41
2021/03/13 03:51:02;;;;;;;9.18;4.85;;;;;;;1.51;76.67;93222.81;5114700;28;20023;-42
2021/03/13 03:53:32;;;;;;;11.35;6.45;;;;;;;1.51;76.50;93234.44;5114708;28;20107;-41
2021/03/13 03:55:59;;;;;;;1.90;1.80;;;;;;;1.60;76.22;93241.59;5114786;28;20027;-40
2021/03/13 03:58:26;;;;;;;3.72;3.30;;;;;;;1.60;76.07;93238.88;5114284;28;20030;-42
2021/03/13 04:00:53;;;;;;;1.98;1.88;;;;;;;1.72;76.29;93237.63;5096425;28;20492;-40
2021/03/13 04:03:20;;;;;;;1.75;1.20;;;;;;;1.43;77.80;93238.88;5114529;28;20032;-43
2021/03/13 04:05:46;;;;;;;2.95;2.17;;;;;;;1.50;77.73;93245.78;5096290;28;20158;-41
2021/03/13 04:08:14;;;;;;;5.85;2.63;;;;;;;1.51;77.23;93252.72;5096196;28;20043;-40
2021/03/13 04:10:42;;;;;;;4.03;3.33;;;;;;;1.48;77.76;93249.03;5114263;28;20027;-41
2021/03/13 04:13:08;;;;;;;4.43;2.58;;;;;;;1.40;78.09;93258.91;5114297;28;20023;-41
2021/03/13 04:15:34;;;;;;;2.78;2.60;;;;;;;1.34;77.88;93265.59;5096043;28;20100;-41
2021/03/13 04:17:59;;;;;;;3.58;2.58;;;;;;;1.26;78.07;93256.41;5096109;28;20015;-41
2021/03/13 04:20:25;;;;;;;4.45;2.15;;;;;;;1.33;78.04;93264.84;5095871;28;20407;-42
2021/03/13 04:22:51;;;;;;;5.97;4.72;;;;;;;1.38;78.22;93266.84;5095868;28;20097;-40
2021/03/13 04:25:17;;;;;;;2.72;2.53;;;;;;;1.44;77.88;93273.00;5095935;28;20038;-41
2021/03/13 04:27:45;;;;;;;7.07;4.68;;;;;;;1.45;78.21;93271.75;5114097;28;20027;-40
2021/03/13 04:30:19;;;;;;;3.17;2.58;;;;;;;1.46;78.50;93278.69;5096328;28;20026;-43
2021/03/13 04:32:50;;;;;;;4.72;4.22;;;;;;;1.65;77.95;93276.22;5113993;28;20557;-44
2021/03/13 04:35:16;;;;;;;3.58;3.30;;;;;;;1.65;77.86;93276.22;5095609;28;20020;-40
2021/03/13 04:37:43;;;;;;;1.92;1.83;;;;;;;1.40;77.99;93269.81;5113786;28;20023;-44
2021/03/13 04:40:09;;;;;;;5.20;4.70;;;;;;;1.44;77.89;93269.53;5095371;28;20632;-44
2021/03/13 04:42:37;;;;;;;7.50;2.22;;;;;;;1.57;77.30;93272.50;5095244;28;20416;-44
2021/03/13 04:45:03;;;;;;;8.40;5.90;;;;;;;1.56;77.53;93278.47;5091913;28;20044;-42
2021/03/13 04:47:28;;;;;;;2.75;2.55;;;;;;;1.68;77.73;93277.97;5093183;28;20126;-42
2021/03/13 04:49:53;;;;;;;9.73;5.13;;;;;;;1.74;77.35;93283.38;5093154;28;20119;-42
2021/03/13 04:52:19;;;;;;;4.35;3.88;;;;;;;1.70;77.17;93272.75;5091928;28;20054;-45
2021/03/13 04:54:44;;;;;;;6.43;4.15;;;;;;;1.87;77.07;93275.47;5093237;28;20088;-44
2021/03/13 04:57:10;;;;;;;3.15;2.60;;;;;;;1.93;76.19;93262.56;5093149;28;20031;-42
2021/03/13 04:59:36;;;;;;;3.05;2.88;;;;;;;1.75;76.28;93258.41;5092931;28;20097;-45
2021/03/13 05:02:02;;;;;;;5.90;5.40;;;;;;;1.67;77.05;93271.00;5092984;28;20024;-43
2021/03/13 05:04:28;;;;;;;6.82;2.50;;;;;;;1.60;77.76;93260.66;5092959;28;20043;-42
2021/03/13 05:06:53;;;;;;;4.65;3.55;;;;;;;1.74;77.61;93275.22;5092937;28;20441;-44
2021/03/13 05:09:19;;;;;;;3.25;3.05;;;;;;;1.80;76.98;93265.81;5092816;28;20016;-44
2021/03/13 05:11:44;;;;;;;6.22;4.88;;;;;;;1.87;76.72;93267.28;5092641;28;20031;-46
2021/03/13 05:14:09;;;;;;;3.97;3.10;;;;;;;1.81;77.89;93252.94;5093016;28;20024;-44
2021/03/13 05:16:35;;;;;;;5.90;4.80;;;;;;;1.83;78.04;93262.09;5092626;28;20028;-44
2021/03/13 05:19:00;;;;;;;12.30;5.55;;;;;;;1.60;77.32;93236.16;5092577;28;20751;-47
2021/03/13 05:21:26;;;;;;;9.38;5.55;;;;;;;1.82;77.88;93247.00;5092554;28;20024;-43
2021/03/13 05:23:51;;;;;;;17.73;5.35;;;;;;;1.96;76.89;93254.16;5092530;28;20036;-43
2021/03/13 05:26:17;;;;;;;9.00;6.60;;;;;;;1.99;76.16;93252.44;5092319;28;20023;-45
2021/03/13 05:28:42;;;;;;;4.50;4.20;;;;;;;2.17;76.24;93260.81;5092575;28;20142;-44
2021/03/13 05:31:08;;;;;;;3.15;2.90;;;;;;;2.19;75.42;93255.59;5092407;28;20519;-43
2021/03/13 05:33:33;;;;;;;4.07;3.85;;;;;;;2.22;75.32;93253.84;5092409;28;20020;-44
2021/03/13 05:35:58;;;;;;;4.60;3.53;;;;;;;2.26;74.63;93254.34;5092180;28;20024;-42
2021/03/13 05:38:24;;;;;;;4.28;1.95;;;;;;;2.35;74.92;93262.25;5091995;28;20039;-42
2021/03/13 05:40:49;;;;;;;3.85;3.55;;;;;;;2.35;75.19;93264.97;5092295;28;20024;-41
2021/03/13 05:43:15;;;;;;;3.22;3.03;;;;;;;2.26;75.85;93265.22;5093595;28;20031;-43
2021/03/13 05:45:40;;;;;;;6.10;4.70;;;;;;;2.34;76.15;93270.94;5112338;28;20044;-45
2021/03/13 05:48:08;;;;;;;4.70;4.30;;;;;;;2.27;76.43;93278.34;5093712;28;20031;-42
2021/03/13 05:50:34;;;;;;;8.88;3.28;;;;;;;2.15;76.81;93276.91;5111557;28;20096;-43
2021/03/13 05:53:02;;;;;;;5.90;4.55;;;;;;;2.10;76.66;93272.19;5111296;28;20026;-41
2021/03/13 05:55:29;;;;;;;6.85;5.47;;;;;;;2.16;77.17;93262.06;5112359;28;20096;-41
2021/03/13 05:57:56;;;;;;;3.95;3.63;;;;;;;2.40;75.95;93260.75;5112298;28;20419;-40
2021/03/13 06:00:22;;;;;;;5.68;4.97;;;;;;;2.52;75.92;93275.78;5112105;28;20016;-40
2021/03/13 06:02:49;;;;;;;8.80;4.57;;;;;;;2.56;75.84;93277.03;5111975;28;20496;-41
2021/03/13 06:05:15;;;;;;;4.65;4.25;;;;;;;2.48;75.41;93262.44;5112328;28;20039;-40
2021/03/13 06:07:42;;;;;;;6.90;5.32;;;;;;;2.45;75.65;93277.06;5112108;28;20020;-40
2021/03/13 06:10:08;;;;;;;3.30;2.97;;;;;;;2.45;75.92;93268.16;5112023;28;20099;-41
2021/03/13 06:12:34;;;;;;;3.88;3.58;;;;;;;2.80;74.91;93282.63;5111896;28;20076;-42
2021/03/13 06:14:59;;;;;;;3.33;2.97;;;;;;;2.91;75.19;93287.28;5111818;28;20020;-42
2021/03/13 06:17:25;;;;;;;2.40;2.30;;;;;;;3.15;74.28;93281.97;5111920;28;20022;-43
2021/03/13 06:19:53;;;;;;;5.20;3.28;;;;;;;3.43;74.31;93284.50;5111735;28;20027;-41
2021/03/13 06:22:39;;;;;;;6.47;5.85;;;;;;;3.50;73.70;93292.16;5111728;28;20030;-42
2021/03/13 06:25:10;;;;;;;9.15;6.35;;;;;;;3.78;73.10;93281.78;5111398;28;20084;-42
2021/03/13 06:27:36;;;;;;;5.78;5.20;;;;;;;4.11;71.65;93286.22;5111619;28;20140;-41
2021/03/13 06:30:05;;;;;;;6.22;5.70;;;;;;;4.26;71.46;93292.78;5111583;28;20126;-42
2021/03/13 06:32:35;;;;;;;7.93;5.65;;;;;;;4.61;70.85;93292.63;5111654;28;20051;-41
2021/03/13 06:35:18;;;;;;;4.07;3.80;;;;;;;5.66;66.92;93301.50;5111521;28;20051;-44
2021/03/13 06:37:44;;;;;;;10.82;7.15;;;;;;;6.18;64.93;93306.44;5111663;28;20122;-43
2021/03/13 06:40:10;;;;;;;7.75;6.10;;;;;;;6.34;63.76;93307.41;5111268;28;20547;-44
2021/03/13 06:42:36;;;;;;;8.38;5.07;;;;;;;6.31;62.64;93294.75;5111320;28;20026;-43
2021/03/13 06:45:07;;;;;;;13.93;6.57;;;;;;;6.39;62.49;93288.13;5111152;28;20047;-47
2021/03/13 06:47:37;;;;;;;7.50;6.75;;;;;;;6.55;63.02;93289.09;5111288;28;20023;-44
2021/03/13 06:50:09;;;;;;;7.90;6.85;;;;;;;6.66;61.84;93289.63;5111018;28;20488;-43
2021/03/13 06:52:37;;;;;;;13.80;5.50;;;;;;;7.37;61.16;93294.19;5111332;28;20055;-42
2021/03/13 06:55:03;;;;;;;4.63;3.92;;;;;;;7.76;59.47;93296.09;5111266;28;20038;-44
2021/03/13 06:57:29;;;;;;;14.00;10.40;;;;;;;7.76;58.54;93290.59;5111282;28;20027;-41
2021/03/13 06:59:59;;;;;;;8.48;4.95;;;;;;;7.76;58.62;93276.84;5111196;28;20020;-43
2021/03/13 07:02:24;;;;;;;1.80;1.35;;;;;;;8.25;58.21;93297.69;5111181;28;20043;-43
2021/03/13 07:04:50;;;;;;;6.97;4.68;;;;;;;8.35;56.87;93295.22;5088915;28;20105;-44
2021/03/13 07:07:29;;;;;;;2.42;2.00;;;;;;;8.50;56.50;93311.84;5090971;28;20032;-42
2021/03/13 07:09:56;;;;;;;3.75;3.45;;;;;;;7.99;57.33;93310.81;5090774;28;20556;-41
2021/03/13 07:12:25;;;;;;;3.05;2.08;;;;;;;7.88;57.30;93306.31;5090816;28;20436;-43
2021/03/13 07:14:52;;;;;;;4.70;2.53;;;;;;;7.42;58.08;93312.56;5090953;28;20077;-43
2021/03/13 07:17:18;;;;;;;2.35;2.15;;;;;;;7.42;58.77;93307.09;5090574;28;20043;-43
2021/03/13 07:19:43;;;;;;;3.92;1.60;;;;;;;7.04;60.34;93311.38;5090518;28;20063;-43
2021/03/13 07:22:12;;;;;;;2.60;2.50;;;;;;;7.16;59.72;93307.88;5090664;28;20068;-42
2021/03/13 07:24:39;;;;;;;3.40;3.13;;;;;;;7.14;60.02;93317.91;5090418;28;20505;-43
2021/03/13 07:27:05;;;;;;;3.03;2.83;;;;;;;7.35;60.37;93316.72;5104823;28;20039;-44
2021/03/13 07:29:31;;;;;;;5.22;3.17;;;;;;;7.77;60.33;93330.56;5092512;28;20027;-43
2021/03/13 07:32:01;;;;;;;6.55;2.53;;;;;;;8.21;59.26;93330.25;5110861;28;20069;-44
2021/03/13 07:34:31;;;;;;;2.70;2.55;;;;;;;8.66;58.21;93329.97;5110826;28;20141;-50
2021/03/13 07:36:58;;;;;;;9.20;2.80;;;;;;;9.10;56.08;93328.03;5092455;28;20519;-44
2021/03/13 07:39:31;;;;;;;4.18;3.10;;;;;;;9.93;53.09;93322.88;5110620;28;20024;-43
2021/03/13 07:42:02;;;;;;;4.65;4.25;;;;;;;11.58;48.95;93323.41;5110696;28;20031;-46
2021/03/13 07:44:29;;;;;;;6.30;4.63;;;;;;;12.79;45.09;93302.06;5110534;28;20443;-43
2021/03/13 07:46:55;;;;;;;3.55;3.35;;;;;;;13.81;43.35;93303.44;5092425;28;20048;-45
2021/03/13 07:49:21;;;;;;;5.35;3.47;;;;;;;14.23;41.71;93298.44;5092069;28;20608;-45
2021/03/13 07:51:47;;;;;;;4.30;3.83;;;;;;;14.03;42.49;93296.88;5092751;28;20423;-49
2021/03/13 07:54:14;;;;;;;6.18;4.70;;;;;;;13.46;42.71;93277.03;5110510;28;20024;-44
2021/03/13 07:56:40;;;;;;;11.02;6.03;;;;;;;13.13;43.01;93306.19;5092449;28;20043;-47
2021/03/13 07:59:10;;;;;;;4.20;3.60;;;;;;;12.66;45.08;93321.00;5091961;28;20028;-46
2021/03/13 08:01:53;;;;;;;3.40;3.13;;;;;;;12.07;45.84;93313.25;5110445;28;20020;-46
2021/03/13 08:04:37;;;;;;;6.32;3.78;;;;;;;11.72;47.32;93313.59;5110147;28;20027;-46
2021/03/13 08:07:03;;;;;;;7.00;4.88;;;;;;;11.49;47.08;93302.59;5109003;28;20019;-46
2021/03/13 08:09:28;;;;;;;6.65;4.15;;;;;;;11.42;48.63;93317.19;5108764;28;21412;-46
2021/03/13 08:11:54;;;;;;;6.50;4.18;;;;;;;11.18;49.09;93317.78;5107143;28;20035;-44
2021/03/13 08:14:34;;;;;;;4.75;4.30;;;;;;;11.15;49.30;93319.63;5109757;28;20019;-44
2021/03/13 08:17:11;;;;;;;7.78;3.53;;;;;;;11.04;49.51;93313.78;5110422;28;20030;-43
2021/03/13 08:19:39;;;;;;;4.68;3.13;;;;;;;11.12;48.45;93326.28;5113398;28;20038;-45
2021/03/13 08:22:18;;;;;;;1.85;1.70;;;;;;;11.11;49.92;93327.56;5113276;28;20012;-45
2021/03/13 08:24:48;;;;;;;3.20;2.10;;;;;;;10.58;50.07;93324.84;5110459;28;20681;-44
2021/03/13 08:27:16;;;;;;;3.20;2.20;;;;;;;10.25;52.17;93323.16;5111818;28;20027;-40
2021/03/13 08:30:00;;;;;;;1.50;1.40;;;;;;;9.82;52.89;93323.22;5112140;28;20023;-41
2021/03/13 08:33:03;;;;;;;1.73;1.45;;;;;;;10.17;52.86;93324.44;5109970;28;20027;-46
2021/03/13 08:35:43;;;;;;;1.92;1.63;;;;;;;10.41;51.44;93321.91;5108944;28;20016;-44
2021/03/13 08:38:10;;;;;;;1.25;1.17;;;;;;;10.70;50.26;93322.44;5109315;28;20038;-45
2021/03/13 08:40:46;;;;;;;1.88;1.77;;;;;;;10.92;49.24;93323.72;5110801;28;20007;-44
2021/03/13 08:43:33;;;;;;;1.50;1.38;;;;;;;11.37;47.67;93329.16;5111152;28;20073;-44
2021/03/13 08:45:58;;;;;;;15.93;5.25;;;;;;;11.64;47.82;93329.47;5110878;28;20047;-43
2021/03/13 08:48:55;;;;;;;2.85;2.50;;;;;;;12.07;47.67;93329.84;5092668;28;20030;-44
2021/03/13 08:51:21;;;;;;;3.90;3.50;;;;;;;12.28;45.47;93326.78;5110921;28;20060;-43
2021/03/13 08:53:46;;;;;;;6.18;2.80;;;;;;;12.51;44.76;93327.38;5110702;28;20040;-42
2021/03/13 08:56:42;;;;;;;5.90;3.20;;;;;;;12.76;44.29;93324.59;5111067;28;20023;-44
2021/03/13 08:59:13;;;;;;;5.20;2.50;;;;;;;12.89;43.10;93316.75;5111609;28;20027;-43
2021/03/13 09:01:39;;;;;;;1.90;1.80;;;;;;;12.19;42.84;93324.63;5111497;28;20034;-42
2021/03/13 09:04:05;;;;;;;1.30;1.23;;;;;;;12.26;42.98;93325.91;5111529;28;20027;-43
2021/03/13 09:06:30;;;;;;;1.42;1.33;;;;;;;12.39;42.27;93317.31;5111857;28;20024;-43
2021/03/13 09:09:13;;;;;;;2.15;1.52;;;;;;;12.35;43.44;93325.25;5111618;28;20090;-44
2021/03/13 09:11:41;;;;;;;2.15;1.70;;;;;;;12.20;43.39;93331.63;5111624;28;20023;-44
2021/03/13 09:14:06;;;;;;;2.22;2.00;;;;;;;12.22;44.72;93337.34;5111385;28;20552;-43
2021/03/13 09:16:37;;;;;;;1.75;1.65;;;;;;;12.04;44.19;93336.50;5111462;28;20030;-44
2021/03/13 09:19:03;;;;;;;1.75;1.65;;;;;;;11.85;44.29;93333.47;5111152;28;20028;-43
2021/03/13 09:21:44;;;;;;;3.45;1.77;;;;;;;11.79;43.94;93330.16;5111432;28;20038;-43
2021/03/13 09:24:16;;;;;;;2.00;1.42;;;;;;;11.71;45.35;93331.50;5109225;28;20026;-43
2021/03/13 09:26:41;;;;;;;1.52;1.42;;;;;;;11.65;45.11;93331.66;5110071;28;20024;-43
2021/03/13 09:29:08;;;;;;;1.63;1.45;;;;;;;11.72;46.22;93330.94;5110253;28;20510;-42
2021/03/13 09:31:33;;;;;;;2.33;1.15;;;;;;;11.66;43.61;93330.38;5111165;28;20454;-43
2021/03/13 09:34:16;;;;;;;1.77;1.63;;;;;;;11.82;45.06;93333.84;5092653;28;20096;-44
2021/03/13 09:36:42;;;;;;;1.52;1.42;;;;;;;11.87;45.44;93335.66;5110921;28;20118;-42
2021/03/13 09:39:07;;;;;;;4.68;2.42;;;;;;;12.06;44.54;93330.44;5110781;28;20157;-43
2021/03/13 09:41:33;;;;;;;1.52;0.98;;;;;;;11.93;43.25;93327.91;5110786;28;20099;-43
2021/03/13 09:43:58;;;;;;;1.63;1.20;;;;;;;11.73;43.46;93332.41;5110703;28;20022;-42
2021/03/13 09:46:25;;;;;;;1.13;1.08;;;;;;;11.62;44.76;93332.06;5110796;28;20047;-42
2021/03/13 09:48:50;;;;;;;0.95;0.95;;;;;;;11.32;45.94;93328.09;5092382;28;20403;-42
2021/03/13 09:51:17;;;;;;;1.60;1.05;;;;;;;11.41;44.66;93329.53;5092470;28;20023;-43
2021/03/13 09:53:42;;;;;;;2.20;1.75;;;;;;;11.18;45.04;93318.53;5110720;28;20027;-43
2021/03/13 09:56:08;;;;;;;2.33;0.90;;;;;;;11.06;46.14;93314.69;5110532;28;20104;-42
2021/03/13 09:58:33;;;;;;;1.30;0.98;;;;;;;11.15;46.54;93336.22;5110429;28;20066;-43
2021/03/13 10:00:59;;;;;;;0.98;0.98;;;;;;;11.15;45.21;93341.03;5110282;28;20115;-46
2021/03/13 10:03:25;;;;;;;1.80;1.67;;;;;;;10.98;47.04;93349.16;5110384;28;20034;-43
2021/03/13 10:05:55;;;;;;;4.00;2.20;;;;;;;10.87;47.39;93353.00;5092130;28;20044;-42
2021/03/13 10:08:21;;;;;;;4.30;2.75;;;;;;;10.82;47.55;93358.72;5110384;28;20023;-42
2021/03/13 10:10:48;;;;;;;1.30;1.30;;;;;;;10.89;48.54;93361.50;5110650;28;20560;-42
2021/03/13 10:13:16;;;;;;;2.33;2.15;;;;;;;10.89;48.19;93363.50;5110792;28;20496;-44
2021/03/13 10:15:42;;;;;;;3.88;2.65;;;;;;;10.79;47.60;93366.06;5111033;28;20032;-44
2021/03/13 10:18:19;;;;;;;2.42;1.77;;;;;;;10.93;47.62;93363.88;5110692;28;20496;-42
2021/03/13 10:20:48;;;;;;;1.88;1.73;;;;;;;11.12;48.08;93361.47;5110723;28;20541;-43
2021/03/13 10:23:22;;;;;;;3.10;2.80;;;;;;;11.10;48.33;93359.25;5109401;28;20139;-43
2021/03/13 10:26:09;;;;;;;8.27;3.10;;;;;;;11.35;47.35;93342.81;5110374;28;20556;-42
2021/03/13 10:28:34;;;;;;;5.70;3.85;;;;;;;11.67;46.82;93358.81;5110625;28;20023;-42
2021/03/13 10:31:22;;;;;;;4.72;3.35;;;;;;;12.16;45.68;93356.94;5110487;28;20019;-43
2021/03/13 10:33:49;;;;;;;6.25;4.97;;;;;;;12.49;45.29;93360.44;5110399;28;20023;-43
2021/03/13 10:36:16;;;;;;;5.60;2.83;;;;;;;12.51;44.65;93360.63;5110244;28;20019;-43
2021/03/13 10:38:52;;;;;;;2.47;2.28;;;;;;;12.46;44.12;93364.34;5074944;28;20027;-42
2021/03/13 10:41:22;;;;;;;2.70;2.17;;;;;;;12.26;43.86;93359.09;5110784;28;20027;-43
2021/03/13 10:43:48;;;;;;;2.15;1.95;;;;;;;12.32;45.26;93359.63;5110025;28;20040;-43
2021/03/13 10:46:23;;;;;;;4.20;3.17;;;;;;;12.51;44.76;93366.16;5108928;28;20055;-44
2021/03/13 10:48:53;;;;;;;5.35;3.70;;;;;;;12.72;44.19;93368.59;5107331;28;20028;-43
2021/03/13 10:51:35;;;;;;;6.28;3.67;;;;;;;12.81;44.72;93354.88;5108933;28;20257;-43
2021/03/13 10:54:02;;;;;;;5.30;3.33;;;;;;;12.62;46.04;93353.91;5106472;28;20027;-42
2021/03/13 10:56:40;;;;;;;7.22;3.78;;;;;;;12.80;44.53;93344.31;5109082;28;20039;-44
2021/03/13 10:59:06;;;;;;;4.97;2.58;;;;;;;13.06;44.10;93335.47;5106868;28;20019;-43
2021/03/13 11:01:32;;;;;;;3.70;3.40;;;;;;;13.11;43.01;93333.75;5109075;28;20039;-44
2021/03/13 11:03:57;;;;;;;4.25;3.80;;;;;;;13.02;44.13;93331.59;5108848;28;20020;-43
2021/03/13 11:06:24;;;;;;;3.15;2.80;;;;;;;13.13;43.95;93331.16;5108897;28;20015;-43
2021/03/13 11:08:51;;;;;;;6.35;2.55;;;;;;;13.36;43.43;93332.41;5109037;28;20102;-43
2021/03/13 11:11:17;;;;;;;3.75;3.28;;;;;;;13.38;43.44;93338.09;5108653;28;20457;-44
2021/03/13 11:13:42;;;;;;;4.55;3.25;;;;;;;13.26;43.95;93339.16;5108661;28;20106;-43
2021/03/13 11:16:08;;;;;;;1.52;1.42;;;;;;;13.14;43.58;93338.91;5107753;28;20539;-41
2021/03/13 11:18:33;;;;;;;4.50;3.92;;;;;;;13.06;43.54;93316.06;5105474;28;20031;-42
2021/03/13 11:20:59;;;;;;;6.88;2.92;;;;;;;13.32;44.08;93340.41;5108870;28;20080;-43
2021/03/13 11:23:24;;;;;;;2.55;2.28;;;;;;;13.31;45.33;93346.53;5104982;28;20015;-44
2021/03/13 11:25:50;;;;;;;5.97;4.15;;;;;;;13.63;44.41;93338.78;5107066;27;20049;-43
2021/03/13 11:28:17;;;;;;;1.95;1.60;;;;;;;13.90;43.42;93327.75;5089947;28;20016;-44
2021/03/13 11:30:42;;;;;;;4.03;2.72;;;;;;;14.07;42.59;93329.78;5108447;28;20024;-42
2021/03/13 11:33:09;;;;;;;3.55;2.67;;;;;;;14.31;42.15;93326.16;5108030;28;20470;-43
2021/03/13 11:35:34;;;;;;;3.67;3.05;;;;;;;14.65;41.51;93328.06;5105358;28;20024;-46
2021/03/13 11:38:00;;;;;;;4.45;2.17;;;;;;;14.88;41.46;93317.31;5107796;28;20038;-45
2021/03/13 11:40:25;;;;;;;2.65;2.25;;;;;;;15.03;41.26;93309.47;5092504;28;20097;-45
2021/03/13 11:42:55;;;;;;;3.20;2.40;;;;;;;15.27;40.38;93309.84;5102448;28;20134;-43
2021/03/13 11:45:22;;;;;;;1.80;1.58;;;;;;;14.76;40.82;93314.38;5107548;28;20172;-44